Time;durP1;ratioP1;P1;durP2;ratioP2;P2;SDS_P1;SDS_P2;PMS_P1;PMS_P2;Temp;Humidity;BMP_temperature;BMP_pressure;BME280_temperature;BME280_humidity;BME280_pressure;Samples;Min_cycle;Max_cycle;Signal;HPM_P1;HPM_P2
2022/05/12 00:00:23;;;;;;;10.68;6.20;;;;;;;16.41;67.19;100534.75;687668;28;1085;-76
2022/05/12 00:00:43;;;;;;;11.83;6.20;;;;;;;16.40;67.28;100539.13;692726;28;1162;-76
2022/05/12 00:01:04;;;;;;;10.13;6.20;;;;;;;16.40;67.44;100535.59;690466;28;1212;-76
2022/05/12 00:01:25;;;;;;;8.38;6.22;;;;;;;16.38;67.51;100553.16;690370;28;1432;-75
2022/05/12 00:01:45;;;;;;;9.60;5.90;;;;;;;16.38;67.25;100551.41;690511;28;745;-75
2022/05/12 00:02:06;;;;;;;10.65;6.00;;;;;;;16.34;67.72;100549.66;690399;28;1062;-76
2022/05/12 00:02:27;;;;;;;11.35;5.80;;;;;;;16.37;67.68;100551.41;693061;28;1353;-76
2022/05/12 00:02:48;;;;;;;10.15;5.97;;;;;;;16.38;67.78;100551.41;687779;28;1278;-75
2022/05/12 00:03:09;;;;;;;11.60;6.00;;;;;;;16.31;67.70;100558.41;682976;28;1240;-76
2022/05/12 00:03:29;;;;;;;11.85;5.80;;;;;;;16.37;67.83;100554.94;685138;28;1029;-76
2022/05/12 00:03:50;;;;;;;13.03;6.33;;;;;;;16.39;67.81;100558.44;685308;28;784;-76
2022/05/12 00:04:10;;;;;;;12.70;6.40;;;;;;;16.39;67.61;100553.16;687843;28;1025;-76
2022/05/12 00:04:33;;;;;;;11.90;6.70;;;;;;;16.38;67.72;100553.16;695736;28;953;-76
2022/05/12 00:04:55;;;;;;;10.88;6.18;;;;;;;16.40;67.83;100554.91;687361;28;1370;-76
2022/05/12 00:05:16;;;;;;;11.13;6.32;;;;;;;16.45;67.81;100562.81;685003;28;1013;-75
2022/05/12 00:05:37;;;;;;;13.05;6.32;;;;;;;16.42;67.78;100565.47;690007;28;1141;-75
2022/05/12 00:05:57;;;;;;;13.77;6.50;;;;;;;16.46;67.70;100567.22;690436;28;903;-75
2022/05/12 00:06:18;;;;;;;11.18;6.10;;;;;;;16.46;67.60;100561.09;690434;28;1217;-75
2022/05/12 00:06:38;;;;;;;13.53;6.23;;;;;;;16.46;67.71;100558.44;690353;28;1391;-76
2022/05/12 00:06:59;;;;;;;15.98;6.75;;;;;;;16.48;67.78;100564.59;690530;28;1053;-76
2022/05/12 00:07:19;;;;;;;17.93;7.50;;;;;;;16.51;67.53;100572.47;690057;28;1143;-76
2022/05/12 00:07:44;;;;;;;16.20;7.28;;;;;;;16.47;67.66;100552.28;684965;28;1342;-76
2022/05/12 00:08:05;;;;;;;14.73;6.78;;;;;;;16.43;67.78;100548.78;685018;28;1304;-75
2022/05/12 00:08:26;;;;;;;13.95;6.47;;;;;;;16.46;67.83;100547.91;682406;29;1006;-75
2022/05/12 00:08:47;;;;;;;11.27;6.60;;;;;;;16.46;67.84;100555.81;690528;28;1174;-75
2022/05/12 00:09:07;;;;;;;11.80;6.57;;;;;;;16.44;67.92;100564.59;690565;28;1000;-75
2022/05/12 00:09:28;;;;;;;13.15;6.57;;;;;;;16.48;68.17;100564.59;692848;28;1133;-76
2022/05/12 00:09:49;;;;;;;11.88;6.40;;;;;;;16.47;67.93;100557.56;692890;28;749;-76
2022/05/12 00:10:13;;;;;;;13.25;6.75;;;;;;;16.52;67.97;100575.13;690408;28;1184;-76
2022/05/12 00:10:34;;;;;;;12.02;7.10;;;;;;;16.52;67.97;100568.97;687697;28;1307;-75
2022/05/12 00:10:55;;;;;;;13.35;7.18;;;;;;;16.44;68.05;100577.75;698037;28;1051;-75
2022/05/12 00:11:15;;;;;;;11.90;7.00;;;;;;;16.52;68.14;100579.50;693175;28;1287;-76
2022/05/12 00:11:36;;;;;;;11.67;6.90;;;;;;;16.53;68.05;100581.28;691059;28;1125;-76
2022/05/12 00:11:57;;;;;;;11.00;6.80;;;;;;;16.58;67.95;100574.22;690448;28;1161;-75
2022/05/12 00:12:17;;;;;;;10.40;6.78;;;;;;;16.54;67.79;100572.50;693087;28;1223;-76
2022/05/12 00:12:39;;;;;;;13.87;6.90;;;;;;;16.52;67.83;100574.22;693189;28;1203;-75
2022/05/12 00:13:01;;;;;;;16.10;7.15;;;;;;;16.43;68.08;100573.34;693346;28;859;-75
2022/05/12 00:13:22;;;;;;;15.75;7.50;;;;;;;16.51;68.10;100567.22;687763;28;887;-76
2022/05/12 00:13:42;;;;;;;12.38;7.30;;;;;;;16.52;68.09;100576.84;689395;28;1130;-75
2022/05/12 00:14:03;;;;;;;13.00;7.85;;;;;;;16.47;68.13;100576.00;690378;28;1248;-76
2022/05/12 00:14:24;;;;;;;14.83;7.63;;;;;;;16.54;68.22;100575.97;690534;28;769;-75
2022/05/12 00:14:45;;;;;;;14.23;7.40;;;;;;;16.54;68.05;100573.34;690544;28;855;-76
2022/05/12 00:15:08;;;;;;;12.60;6.75;;;;;;;16.49;68.02;100566.34;693213;28;1191;-75
2022/05/12 00:15:32;;;;;;;11.82;6.88;;;;;;;16.52;68.19;100580.38;687613;28;1977;-75
2022/05/12 00:15:54;;;;;;;15.18;6.90;;;;;;;16.53;68.08;100576.00;690526;28;852;-75
2022/05/12 00:16:15;;;;;;;16.35;7.20;;;;;;;16.55;68.07;100579.50;687707;28;1248;-76
2022/05/12 00:16:35;;;;;;;14.40;7.25;;;;;;;16.54;67.95;100588.28;689549;28;1175;-75
2022/05/12 00:17:00;;;;;;;12.57;7.20;;;;;;;16.47;68.17;100576.00;687714;28;1352;-75
2022/05/12 00:17:21;;;;;;;11.52;7.05;;;;;;;16.55;68.29;100600.59;687709;28;1089;-76
2022/05/12 00:17:44;;;;;;;10.93;7.10;;;;;;;16.57;68.18;100590.91;685117;28;977;-75
2022/05/12 00:18:08;;;;;;;11.90;7.22;;;;;;;16.50;68.28;100589.16;688274;28;1301;-76
2022/05/12 00:18:28;;;;;;;13.95;7.22;;;;;;;16.49;68.39;100584.78;690805;28;1076;-76
2022/05/12 00:18:49;;;;;;;13.20;6.70;;;;;;;16.55;68.35;100595.31;691106;28;830;-75
2022/05/12 00:19:10;;;;;;;11.13;6.50;;;;;;;16.58;68.06;100590.94;692101;28;952;-76
2022/05/12 00:19:30;;;;;;;10.80;6.65;;;;;;;16.53;68.22;100589.19;691585;28;1039;-75
2022/05/12 00:19:51;;;;;;;13.02;6.88;;;;;;;16.49;68.35;100584.78;692785;28;938;-75
2022/05/12 00:20:14;;;;;;;12.77;7.00;;;;;;;16.58;68.30;100600.56;688627;28;1254;-76
2022/05/12 00:20:38;;;;;;;12.68;6.80;;;;;;;16.59;68.26;100602.31;688262;28;1197;-76
2022/05/12 00:20:59;;;;;;;11.60;6.55;;;;;;;16.49;68.35;100592.69;691019;28;866;-75
2022/05/12 00:21:19;;;;;;;10.53;6.43;;;;;;;16.53;68.48;100600.56;690954;28;1087;-76
2022/05/12 00:21:40;;;;;;;10.97;6.60;;;;;;;16.42;68.44;100584.75;690915;28;1196;-75
2022/05/12 00:22:01;;;;;;;10.25;6.60;;;;;;;16.46;68.46;100597.94;688350;28;791;-75
2022/05/12 00:22:21;;;;;;;9.00;6.00;;;;;;;16.53;68.46;100603.22;688396;28;902;-75
2022/05/12 00:22:42;;;;;;;9.50;6.30;;;;;;;16.48;68.42;100591.81;691042;28;1148;-76
2022/05/12 00:23:14;;;;;;;10.82;6.00;;;;;;;16.53;68.36;100603.22;693590;28;1521;-76
2022/05/12 00:23:34;;;;;;;11.35;5.85;;;;;;;16.57;68.33;100596.19;690918;28;961;-75
2022/05/12 00:23:58;;;;;;;10.05;5.60;;;;;;;16.54;68.10;100594.44;688400;28;981;-76
2022/05/12 00:24:19;;;;;;;9.85;5.60;;;;;;;16.50;68.09;100599.69;690940;28;1187;-76
2022/05/12 00:24:39;;;;;;;11.80;5.90;;;;;;;16.51;68.28;100593.53;685608;28;1224;-75
2022/05/12 00:25:02;;;;;;;11.90;5.97;;;;;;;16.52;68.24;100597.94;685520;28;1048;-75
2022/05/12 00:25:23;;;;;;;11.85;5.90;;;;;;;16.56;68.09;100602.34;691084;28;822;-75
2022/05/12 00:25:47;;;;;;;10.50;5.70;;;;;;;16.54;68.09;100604.09;691009;28;1174;-75
2022/05/12 00:26:20;;;;;;;11.32;5.75;;;;;;;16.52;68.13;100592.66;688134;28;969;-75
2022/05/12 00:26:42;;;;;;;11.90;5.90;;;;;;;16.55;67.87;100600.59;690963;28;977;-75
2022/05/12 00:27:03;;;;;;;11.23;6.28;;;;;;;16.49;67.95;100592.69;685224;28;1817;-75
2022/05/12 00:27:24;;;;;;;13.68;6.25;;;;;;;16.57;68.07;100604.09;688289;28;1228;-75
2022/05/12 00:27:45;;;;;;;13.35;6.40;;;;;;;16.48;67.94;100596.19;688015;28;1322;-75
2022/05/12 00:28:05;;;;;;;10.88;5.85;;;;;;;16.51;68.02;100599.72;688166;28;1163;-75
2022/05/12 00:28:26;;;;;;;9.57;5.70;;;;;;;16.51;67.94;100611.97;688160;28;1233;-75
2022/05/12 00:28:47;;;;;;;8.98;5.22;;;;;;;16.50;67.96;100604.97;685699;28;1320;-75
2022/05/12 00:29:08;;;;;;;11.17;5.20;;;;;;;16.44;67.86;100596.19;690202;28;1315;-75
2022/05/12 00:29:28;;;;;;;12.23;5.40;;;;;;;16.49;67.81;100616.38;690484;28;1152;-75
2022/05/12 00:29:49;;;;;;;10.50;5.30;;;;;;;16.54;67.71;100619.91;687632;28;1029;-75
2022/05/12 00:30:11;;;;;;;8.40;5.20;;;;;;;16.51;67.76;100615.50;682830;28;1252;-76
2022/05/12 00:30:32;;;;;;;5.60;4.80;;;;;;;16.47;67.90;100608.47;682980;29;988;-75
2022/05/12 00:30:57;;;;;;;7.05;4.93;;;;;;;16.48;67.81;100614.63;685542;28;789;-75
2022/05/12 00:31:18;;;;;;;7.78;4.80;;;;;;;16.46;67.70;100601.44;685718;28;1078;-76
2022/05/12 00:31:41;;;;;;;10.05;4.57;;;;;;;16.47;67.56;100602.34;687942;28;1139;-76
2022/05/12 00:32:02;;;;;;;9.93;4.50;;;;;;;16.42;67.45;100610.25;688306;28;1328;-75
2022/05/12 00:32:23;;;;;;;10.30;4.90;;;;;;;16.41;67.69;100603.22;685637;28;1245;-75
2022/05/12 00:32:46;;;;;;;7.18;5.05;;;;;;;16.49;67.74;100613.75;685597;28;969;-76
2022/05/12 00:33:07;;;;;;;6.90;5.00;;;;;;;16.56;67.40;100626.03;685619;28;1158;-76
2022/05/12 00:33:28;;;;;;;8.73;4.70;;;;;;;16.48;67.32;100614.63;688353;28;1136;-76
2022/05/12 00:33:49;;;;;;;8.77;4.50;;;;;;;16.39;67.39;100607.59;688394;28;905;-76
2022/05/12 00:34:12;;;;;;;9.27;4.57;;;;;;;16.41;67.40;100613.75;688258;28;1148;-76
2022/05/12 00:34:32;;;;;;;7.63;4.70;;;;;;;16.39;67.37;100621.63;688434;28;1061;-76
2022/05/12 00:34:53;;;;;;;7.30;4.57;;;;;;;16.41;67.19;100625.16;690997;28;1185;-77
2022/05/12 00:35:15;;;;;;;8.82;4.78;;;;;;;16.44;67.14;100630.44;685562;28;1225;-75
2022/05/12 00:35:36;;;;;;;9.60;4.63;;;;;;;16.49;67.14;100638.34;685503;28;1394;-75
2022/05/12 00:35:57;;;;;;;11.53;4.83;;;;;;;16.54;66.94;100635.72;685597;28;1305;-76
2022/05/12 00:36:19;;;;;;;7.65;4.07;;;;;;;16.46;66.97;100629.56;693654;28;1099;-76
2022/05/12 00:36:40;;;;;;;6.30;3.88;;;;;;;16.53;67.00;100633.97;693528;28;1234;-75
2022/05/12 00:37:01;;;;;;;6.50;4.00;;;;;;;16.48;66.66;100631.31;691010;28;1146;-75
2022/05/12 00:37:22;;;;;;;8.43;4.40;;;;;;;16.53;66.66;100632.19;693748;28;929;-76
2022/05/12 00:37:43;;;;;;;8.45;4.15;;;;;;;16.48;66.31;100635.69;690813;28;1049;-76
2022/05/12 00:38:04;;;;;;;7.20;3.90;;;;;;;16.43;66.24;100620.75;687975;28;1318;-76
2022/05/12 00:38:25;;;;;;;8.03;3.80;;;;;;;16.46;66.52;100627.78;690851;28;1164;-76
2022/05/12 00:38:45;;;;;;;7.78;3.80;;;;;;;16.43;66.47;100627.78;688496;28;919;-76
2022/05/12 00:39:06;;;;;;;6.50;3.60;;;;;;;16.42;66.35;100628.66;685670;28;1129;-75
2022/05/12 00:39:26;;;;;;;4.90;3.15;;;;;;;16.56;66.09;100647.13;690675;28;1059;-75
2022/05/12 00:39:47;;;;;;;7.60;3.33;;;;;;;16.48;65.98;100633.97;690586;28;1200;-76
2022/05/12 00:40:08;;;;;;;6.90;3.20;;;;;;;16.48;66.23;100639.22;690896;28;1162;-76
2022/05/12 00:40:30;;;;;;;7.50;3.63;;;;;;;16.49;65.84;100651.50;690894;28;1311;-76
2022/05/12 00:40:51;;;;;;;6.20;3.35;;;;;;;16.51;65.72;100646.22;685442;28;1299;-77
2022/05/12 00:41:12;;;;;;;5.60;3.78;;;;;;;16.48;65.42;100630.44;688287;28;1529;-76
2022/05/12 00:41:33;;;;;;;5.00;3.50;;;;;;;16.45;65.44;100641.84;688120;28;1009;-76
2022/05/12 00:41:54;;;;;;;3.95;3.33;;;;;;;16.37;65.59;100630.41;685624;28;991;-76
2022/05/12 00:42:15;;;;;;;5.77;3.23;;;;;;;16.39;65.39;100653.25;687803;28;1111;-76
2022/05/12 00:42:35;;;;;;;5.27;3.20;;;;;;;16.38;65.53;100645.34;685557;28;1288;-77
2022/05/12 00:42:59;;;;;;;5.78;3.13;;;;;;;16.31;65.67;100634.78;690175;28;1484;-75
2022/05/12 00:43:40;;;;;;;4.60;3.20;;;;;;;16.30;65.34;100629.53;693763;28;1089;-76
2022/05/12 00:44:05;;;;;;;6.43;3.65;;;;;;;16.35;65.46;100633.03;690869;28;1303;-75
2022/05/12 00:44:26;;;;;;;7.72;3.90;;;;;;;16.28;65.50;100639.16;687421;28;1280;-76
2022/05/12 00:44:46;;;;;;;6.30;3.80;;;;;;;16.25;65.55;100628.63;685687;28;996;-76
2022/05/12 00:45:07;;;;;;;6.70;3.70;;;;;;;16.29;65.54;100640.94;690937;28;1166;-76
2022/05/12 00:45:29;;;;;;;5.10;3.40;;;;;;;16.32;65.41;100638.31;690978;28;1020;-75
2022/05/12 00:45:50;;;;;;;4.28;3.30;;;;;;;16.18;65.54;100620.69;688335;28;832;-76
2022/05/12 00:46:17;;;;;;;4.40;3.20;;;;;;;16.21;65.59;100621.59;685634;28;998;-76
2022/05/12 00:46:41;;;;;;;5.70;3.42;;;;;;;16.17;65.60;100615.44;685455;28;1271;-75
2022/05/12 00:47:03;;;;;;;6.60;3.70;;;;;;;16.26;65.50;100626.00;693554;28;1206;-76
2022/05/12 00:47:23;;;;;;;5.68;3.80;;;;;;;16.29;65.56;100635.69;687864;28;1558;-76
2022/05/12 00:47:44;;;;;;;4.40;3.50;;;;;;;16.24;65.58;100632.13;688310;28;1022;-76
2022/05/12 00:48:05;;;;;;;4.50;3.50;;;;;;;16.29;65.63;100639.16;688262;28;1180;-77
2022/05/12 00:48:26;;;;;;;5.18;3.50;;;;;;;16.13;65.63;100622.44;690850;28;1556;-75
2022/05/12 00:48:47;;;;;;;4.50;3.25;;;;;;;16.17;65.56;100632.09;693794;28;799;-75
2022/05/12 00:49:14;;;;;;;5.18;3.25;;;;;;;16.30;65.22;100638.28;691008;28;962;-76
2022/05/12 00:49:37;;;;;;;4.72;3.20;;;;;;;16.24;65.43;100632.13;695292;28;1233;-75
2022/05/12 00:49:58;;;;;;;4.90;3.38;;;;;;;16.17;65.29;100637.34;693691;28;934;-75
2022/05/12 00:50:23;;;;;;;4.30;3.50;;;;;;;16.32;65.44;100646.22;694709;28;1064;-76
2022/05/12 00:50:44;;;;;;;4.82;3.50;;;;;;;16.26;65.14;100640.91;688644;28;937;-75
2022/05/12 00:51:07;;;;;;;4.30;3.03;;;;;;;16.27;64.98;100638.31;690968;28;1108;-76
2022/05/12 00:51:33;;;;;;;4.93;3.05;;;;;;;16.35;64.90;100651.47;690823;28;1241;-75
2022/05/12 00:52:04;;;;;;;4.57;2.88;;;;;;;16.38;64.75;100656.75;690920;28;1548;-76
2022/05/12 00:52:29;;;;;;;5.38;3.25;;;;;;;16.31;64.95;100661.09;688162;28;896;-75
2022/05/12 00:52:50;;;;;;;4.95;3.38;;;;;;;16.27;64.68;100642.66;685488;28;1190;-76
2022/05/12 00:53:12;;;;;;;6.13;3.40;;;;;;;16.28;64.65;100653.22;690882;28;1180;-76
2022/05/12 00:53:35;;;;;;;5.43;3.10;;;;;;;16.32;64.79;100664.63;688287;28;1140;-76
2022/05/12 00:54:00;;;;;;;5.80;3.23;;;;;;;16.23;64.67;100648.78;690936;28;1230;-76
2022/05/12 00:54:44;;;;;;;6.03;3.40;;;;;;;16.25;64.66;100655.84;690886;28;1178;-76
2022/05/12 00:55:12;;;;;;;5.10;3.20;;;;;;;16.18;64.82;100660.16;678275;29;1268;-76
2022/05/12 00:55:42;;;;;;;5.72;3.55;;;;;;;16.21;64.89;100661.94;682589;29;2021;-76
2022/05/12 00:56:06;;;;;;;6.55;3.95;;;;;;;16.22;64.74;100671.59;688075;28;1356;-77
2022/05/12 00:56:26;;;;;;;5.80;3.60;;;;;;;16.13;64.91;100661.94;685298;28;1097;-76
2022/05/12 00:56:50;;;;;;;5.63;3.58;;;;;;;16.15;64.93;100656.66;685641;28;785;-76
2022/05/12 00:57:14;;;;;;;5.22;3.38;;;;;;;16.16;64.71;100677.72;689352;28;1197;-76
2022/05/12 00:57:48;;;;;;;4.80;3.10;;;;;;;16.11;64.89;100674.19;690925;28;1088;-76
2022/05/12 00:58:13;;;;;;;6.65;3.20;;;;;;;16.13;64.91;100680.34;688149;28;1887;-76
2022/05/12 00:58:34;;;;;;;8.02;3.25;;;;;;;16.10;64.71;100676.84;690791;28;1158;-77
2022/05/12 00:59:00;;;;;;;7.40;3.50;;;;;;;16.08;64.76;100678.56;688708;28;1303;-75
2022/05/12 00:59:33;;;;;;;6.25;3.63;;;;;;;16.07;64.75;100667.16;691645;28;1244;-76
2022/05/12 00:59:54;;;;;;;4.93;3.65;;;;;;;16.12;64.61;100681.19;694151;28;859;-76
2022/05/12 01:00:16;;;;;;;4.60;3.50;;;;;;;16.05;64.69;100671.56;690862;28;2201;-76
2022/05/12 01:00:37;;;;;;;5.60;3.60;;;;;;;16.03;64.59;100666.28;693685;28;925;-76
2022/05/12 01:00:58;;;;;;;6.15;3.42;;;;;;;16.09;64.71;100680.34;693777;28;815;-76
2022/05/12 01:01:19;;;;;;;7.43;3.30;;;;;;;16.08;64.74;100683.81;693611;28;1151;-75
2022/05/12 01:01:39;;;;;;;6.55;3.15;;;;;;;16.01;64.72;100667.13;688098;28;1236;-76
2022/05/12 01:02:04;;;;;;;6.85;3.60;;;;;;;16.02;64.82;100676.78;692767;28;1410;-77
2022/05/12 01:02:27;;;;;;;6.50;3.80;;;;;;;15.98;64.98;100678.53;693648;28;1079;-75
2022/05/12 01:02:50;;;;;;;5.57;3.53;;;;;;;15.97;64.92;100675.91;693733;28;906;-76
2022/05/12 01:03:16;;;;;;;5.72;3.40;;;;;;;15.95;65.04;100672.38;690922;28;986;-76
2022/05/12 01:03:39;;;;;;;5.45;3.20;;;;;;;15.98;65.08;100690.81;688155;28;1151;-76
2022/05/12 01:04:01;;;;;;;5.22;3.60;;;;;;;15.95;65.16;100677.63;682838;28;1838;-75
2022/05/12 01:04:22;;;;;;;7.35;3.70;;;;;;;15.89;65.18;100674.13;682938;29;1132;-75
2022/05/12 01:04:44;;;;;;;8.40;3.67;;;;;;;15.89;65.18;100684.66;685518;28;921;-76
2022/05/12 01:05:06;;;;;;;7.75;3.50;;;;;;;15.87;65.00;100674.97;687293;28;1044;-76
2022/05/12 01:05:29;;;;;;;4.43;3.40;;;;;;;15.87;65.18;100673.22;690143;28;1243;-75
2022/05/12 01:05:51;;;;;;;4.82;3.50;;;;;;;15.86;65.18;100671.47;690951;28;940;-76
2022/05/12 01:06:12;;;;;;;4.82;3.40;;;;;;;15.92;65.24;100689.03;693652;28;996;-76
2022/05/12 01:06:34;;;;;;;6.00;3.50;;;;;;;15.87;65.12;100681.09;688252;28;962;-76
2022/05/12 01:06:54;;;;;;;6.25;3.50;;;;;;;15.90;65.08;100681.13;690758;28;1126;-76
2022/05/12 01:07:15;;;;;;;8.20;3.60;;;;;;;15.90;65.06;100685.50;688199;28;1323;-76
2022/05/12 01:07:36;;;;;;;8.07;3.60;;;;;;;15.80;65.27;100673.19;688251;28;962;-76
2022/05/12 01:07:58;;;;;;;6.88;3.65;;;;;;;15.80;65.22;100674.06;693702;28;1415;-76
2022/05/12 01:08:21;;;;;;;6.80;3.90;;;;;;;15.80;65.38;100679.31;688211;28;1193;-76
2022/05/12 01:08:43;;;;;;;7.05;4.07;;;;;;;15.79;65.33;100687.22;690651;28;1048;-75
2022/05/12 01:09:04;;;;;;;7.22;4.15;;;;;;;15.78;65.58;100669.69;690642;28;1175;-76
2022/05/12 01:09:26;;;;;;;5.75;3.88;;;;;;;15.80;65.38;100679.31;689963;28;913;-76
2022/05/12 01:09:47;;;;;;;4.72;3.30;;;;;;;15.81;65.29;100681.09;685110;28;792;-76
2022/05/12 01:10:09;;;;;;;12.00;3.60;;;;;;;15.81;65.29;100678.47;688183;28;1138;-76
2022/05/12 01:10:31;;;;;;;13.00;3.90;;;;;;;15.90;65.08;100701.31;685449;28;1002;-75
2022/05/12 01:10:59;;;;;;;10.40;3.80;;;;;;;15.88;65.22;100697.78;685606;28;1117;-77
2022/05/12 01:11:21;;;;;;;6.93;3.60;;;;;;;15.78;65.12;100683.69;687426;28;1191;-76
2022/05/12 01:11:42;;;;;;;7.07;3.53;;;;;;;15.82;65.14;100693.38;682849;29;1085;-76
2022/05/12 01:12:04;;;;;;;6.53;3.40;;;;;;;15.79;65.35;100695.13;684894;28;1344;-76
2022/05/12 01:12:25;;;;;;;5.00;3.50;;;;;;;15.81;65.32;100693.38;688291;28;760;-76
2022/05/12 01:12:48;;;;;;;4.78;3.55;;;;;;;15.74;65.23;100685.44;685515;28;1133;-76
2022/05/12 01:13:09;;;;;;;4.45;3.55;;;;;;;15.83;65.10;100694.25;688247;28;1131;-76
2022/05/12 01:13:31;;;;;;;4.20;3.33;;;;;;;15.74;65.10;100689.84;693647;28;1064;-77
2022/05/12 01:13:59;;;;;;;6.55;3.70;;;;;;;15.80;65.29;100700.38;695355;28;1185;-76
2022/05/12 01:14:20;;;;;;;6.35;3.50;;;;;;;15.81;65.14;100681.09;693579;28;1295;-76
2022/05/12 01:14:40;;;;;;;7.00;3.78;;;;;;;15.75;65.05;100692.44;688128;28;1118;-76
2022/05/12 01:15:01;;;;;;;5.28;3.60;;;;;;;15.79;65.22;100693.34;682933;29;879;-76
2022/05/12 01:15:24;;;;;;;6.88;4.07;;;;;;;15.74;65.03;100684.56;685504;28;1977;-76
2022/05/12 01:15:54;;;;;;;6.50;3.72;;;;;;;15.69;65.01;100687.19;687389;28;1298;-76
2022/05/12 01:16:34;;;;;;;5.60;3.63;;;;;;;15.74;65.15;100703.84;685518;28;994;-76
2022/05/12 01:16:58;;;;;;;4.30;3.60;;;;;;;15.69;65.06;100699.44;684987;28;1323;-76
2022/05/12 01:17:19;;;;;;;4.90;3.50;;;;;;;15.70;64.94;100714.34;685337;28;1241;-75
2022/05/12 01:17:40;;;;;;;4.40;3.30;;;;;;;15.76;64.99;100709.13;687605;28;1364;-76
2022/05/12 01:18:07;;;;;;;5.93;3.60;;;;;;;15.79;64.63;100719.66;688281;28;1200;-76
2022/05/12 01:18:29;;;;;;;5.45;3.67;;;;;;;15.70;64.86;100703.84;696166;28;1042;-75
2022/05/12 01:18:50;;;;;;;7.10;3.70;;;;;;;15.65;64.69;100700.28;693605;28;1365;-76
2022/05/12 01:19:17;;;;;;;6.50;3.70;;;;;;;15.69;64.59;100708.22;690919;28;946;-76
2022/05/12 01:19:40;;;;;;;7.50;4.13;;;;;;;15.75;64.61;100718.75;690161;28;1150;-75
2022/05/12 01:20:01;;;;;;;7.03;4.00;;;;;;;15.73;64.58;100709.13;685386;28;1244;-76
2022/05/12 01:20:23;;;;;;;6.50;3.70;;;;;;;15.70;64.45;100717.88;688306;28;835;-76
2022/05/12 01:20:45;;;;;;;5.45;3.60;;;;;;;15.69;64.22;100713.50;688042;28;1090;-76
2022/05/12 01:21:08;;;;;;;5.38;3.60;;;;;;;15.75;64.22;100720.53;685226;28;1188;-76
2022/05/12 01:21:29;;;;;;;6.75;3.92;;;;;;;15.80;64.10;100718.78;685268;28;1350;-75
2022/05/12 01:21:51;;;;;;;6.60;3.60;;;;;;;15.83;63.92;100716.19;688278;28;923;-75
2022/05/12 01:22:32;;;;;;;6.63;3.70;;;;;;;15.74;63.71;100719.63;688132;28;1047;-77
2022/05/12 01:22:59;;;;;;;6.22;3.80;;;;;;;15.67;63.77;100719.59;690898;28;1115;-76
2022/05/12 01:23:25;;;;;;;6.13;3.80;;;;;;;15.68;63.83;100729.25;690711;28;1354;-76
2022/05/12 01:23:48;;;;;;;5.72;3.40;;;;;;;15.63;63.88;100716.94;684823;28;1354;-75
2022/05/12 01:24:09;;;;;;;4.10;3.13;;;;;;;15.67;63.90;100719.59;687630;28;1268;-76
2022/05/12 01:24:33;;;;;;;5.45;3.30;;;;;;;15.68;63.74;100724.00;685346;28;1204;-75
2022/05/12 01:24:53;;;;;;;8.65;3.95;;;;;;;15.67;63.77;100724.88;685511;28;1257;-77
2022/05/12 01:25:19;;;;;;;7.75;4.00;;;;;;;15.65;63.75;100729.22;685480;28;985;-76
2022/05/12 01:25:40;;;;;;;6.07;3.63;;;;;;;15.60;63.51;100722.19;685059;28;1433;-76
2022/05/12 01:26:05;;;;;;;4.28;2.92;;;;;;;15.63;63.56;100724.84;682929;29;824;-76
2022/05/12 01:26:27;;;;;;;5.43;3.10;;;;;;;15.52;63.65;100721.25;688127;28;1104;-75
2022/05/12 01:26:48;;;;;;;4.45;3.13;;;;;;;15.51;63.58;100722.13;693615;28;1362;-76
2022/05/12 01:27:19;;;;;;;4.30;3.20;;;;;;;15.49;63.42;100729.16;690365;28;1063;-76
2022/05/12 01:27:42;;;;;;;4.57;3.50;;;;;;;15.45;63.67;100730.88;690885;28;1056;-76
2022/05/12 01:28:02;;;;;;;7.80;3.80;;;;;;;15.42;63.57;100724.72;688061;28;1258;-76
2022/05/12 01:28:23;;;;;;;7.88;3.75;;;;;;;15.35;63.61;100724.66;688182;28;1330;-76
2022/05/12 01:28:44;;;;;;;7.97;3.75;;;;;;;15.40;63.47;100729.06;685009;28;956;-75
2022/05/12 01:29:06;;;;;;;4.82;3.40;;;;;;;15.35;63.46;100727.28;685635;28;1148;-76
2022/05/12 01:29:26;;;;;;;4.82;3.22;;;;;;;15.32;63.70;100729.00;687803;28;1124;-76
2022/05/12 01:29:49;;;;;;;4.63;3.20;;;;;;;15.22;63.72;100730.69;687789;28;1039;-76
2022/05/12 01:30:14;;;;;;;6.30;3.08;;;;;;;15.33;63.92;100738.66;688065;28;1793;-76
2022/05/12 01:30:34;;;;;;;8.65;3.50;;;;;;;15.33;63.65;100736.03;685342;28;974;-76
2022/05/12 01:30:56;;;;;;;8.80;3.50;;;;;;;15.21;63.68;100732.44;682901;28;777;-76
2022/05/12 01:31:18;;;;;;;7.25;3.90;;;;;;;15.22;63.62;100728.06;688111;28;1010;-75
2022/05/12 01:31:40;;;;;;;5.82;3.70;;;;;;;15.23;63.82;100735.06;687854;28;1268;-76
2022/05/12 01:32:01;;;;;;;5.32;3.58;;;;;;;15.25;63.36;100733.34;690857;28;1299;-76
2022/05/12 01:32:26;;;;;;;5.20;3.40;;;;;;;15.17;63.75;100729.72;688184;28;1323;-76
2022/05/12 01:32:47;;;;;;;4.22;3.38;;;;;;;15.17;63.76;100729.72;688239;28;843;-76
2022/05/12 01:33:07;;;;;;;4.30;3.42;;;;;;;15.13;63.72;100730.56;688169;28;961;-76
2022/05/12 01:33:29;;;;;;;5.35;3.40;;;;;;;15.12;63.79;100736.72;682773;29;1216;-76
2022/05/12 01:33:51;;;;;;;7.22;3.60;;;;;;;15.12;63.60;100734.94;687435;28;1097;-76
2022/05/12 01:34:12;;;;;;;7.55;3.50;;;;;;;15.20;63.68;100741.13;690990;28;993;-76
2022/05/12 01:34:33;;;;;;;5.97;3.20;;;;;;;15.13;63.57;100743.72;685186;28;1800;-77
2022/05/12 01:34:55;;;;;;;4.60;2.90;;;;;;;15.07;63.50;100737.53;687133;28;952;-76
2022/05/12 01:35:21;;;;;;;5.70;3.00;;;;;;;15.08;63.68;100735.81;690435;28;1158;-76
2022/05/12 01:35:42;;;;;;;6.10;3.33;;;;;;;15.11;63.49;100741.06;696205;28;1353;-76
2022/05/12 01:36:03;;;;;;;5.85;3.40;;;;;;;15.04;63.46;100728.75;690733;28;1201;-76
2022/05/12 01:36:24;;;;;;;6.57;3.83;;;;;;;14.98;63.66;100729.56;688176;28;759;-76
2022/05/12 01:36:44;;;;;;;7.03;3.73;;;;;;;15.00;63.69;100730.47;690749;28;1031;-76
2022/05/12 01:37:05;;;;;;;6.57;3.85;;;;;;;14.92;63.76;100735.66;688243;28;1105;-76
2022/05/12 01:37:27;;;;;;;5.30;3.40;;;;;;;15.02;63.74;100749.78;693427;28;1052;-76
2022/05/12 01:37:48;;;;;;;4.25;3.38;;;;;;;15.01;64.05;100749.75;690845;28;1317;-76
2022/05/12 01:38:09;;;;;;;4.18;3.25;;;;;;;14.91;63.77;100727.75;685457;28;1199;-76
2022/05/12 01:38:30;;;;;;;3.65;3.30;;;;;;;14.90;64.01;100733.88;683221;28;1754;-76
2022/05/12 01:38:52;;;;;;;4.95;3.65;;;;;;;14.84;64.29;100731.19;682683;29;936;-76
2022/05/12 01:39:12;;;;;;;5.30;3.80;;;;;;;14.87;64.38;100736.50;685516;28;1065;-76
2022/05/12 01:39:35;;;;;;;5.23;3.53;;;;;;;14.84;64.24;100731.19;687467;28;1096;-76
2022/05/12 01:39:56;;;;;;;5.60;3.50;;;;;;;14.91;63.92;100738.25;685506;28;1283;-75
2022/05/12 01:40:20;;;;;;;7.53;3.88;;;;;;;14.85;64.06;100732.94;685468;28;969;-76
2022/05/12 01:40:43;;;;;;;8.10;4.00;;;;;;;14.90;63.98;100736.50;684805;28;1127;-76
2022/05/12 01:41:04;;;;;;;8.70;4.07;;;;;;;14.93;64.15;100744.41;685347;28;1265;-76
2022/05/12 01:41:24;;;;;;;8.43;3.97;;;;;;;14.94;63.93;100743.56;685524;28;733;-76
2022/05/12 01:41:45;;;;;;;6.35;3.60;;;;;;;14.91;63.69;100746.16;690799;28;886;-76
2022/05/12 01:42:08;;;;;;;7.07;3.40;;;;;;;14.91;63.79;100752.28;690847;28;1115;-76
2022/05/12 01:42:28;;;;;;;6.00;3.10;;;;;;;14.87;63.57;100736.50;693482;28;1054;-76
2022/05/12 01:42:49;;;;;;;6.43;3.15;;;;;;;14.91;63.88;100751.41;693699;28;759;-76
2022/05/12 01:43:14;;;;;;;4.07;3.07;;;;;;;14.90;63.58;100754.91;690839;28;1036;-76
2022/05/12 01:43:35;;;;;;;6.10;3.30;;;;;;;14.90;63.75;100741.75;687336;28;1123;-75
2022/05/12 01:43:56;;;;;;;6.75;3.40;;;;;;;14.96;63.69;100762.84;690876;28;1230;-75
2022/05/12 01:44:17;;;;;;;7.20;3.58;;;;;;;14.76;63.76;100750.38;690811;28;2091;-74
2022/05/12 01:44:38;;;;;;;4.60;3.03;;;;;;;14.76;63.90;100749.50;690809;28;1188;-76
2022/05/12 01:44:59;;;;;;;5.45;3.30;;;;;;;14.80;63.85;100741.69;690803;28;1226;-77
2022/05/12 01:45:20;;;;;;;4.97;3.20;;;;;;;14.85;63.53;100748.69;690874;28;1009;-76
2022/05/12 01:45:41;;;;;;;5.60;3.35;;;;;;;14.90;63.56;100762.78;685520;28;1134;-75
2022/05/12 01:46:02;;;;;;;6.25;3.60;;;;;;;14.79;63.30;100739.91;693597;28;1074;-76
2022/05/12 01:46:23;;;;;;;5.82;3.70;;;;;;;14.80;63.19;100746.94;690731;28;1058;-75
2022/05/12 01:46:43;;;;;;;6.13;4.00;;;;;;;14.82;63.22;100759.19;687843;28;1006;-76